Terminal Aerodrome Forecast
Issued by NWS

Home | Current Version | Previous Version | Text Only | Print | Product List | Glossary On
Versions: 1 2 3 4 5 6 7 8 9 10 11 12 13
000
FTUS44 KLZK 011739
TAFHOT
TAF
KHOT 011739Z 0118/0218 18006KT P6SM SCT050 BKN250
     FM020100 17003KT P6SM SCT100 BKN250
      TEMPO 0210/0214 5SM BR
     FM021500 19005KT P6SM SCT050=

USA.gov is the U.S. government's official web portal to all federal, state and local government web resources and services.